Time;durP1;ratioP1;P1;durP2;ratioP2;P2;SDS_P1;SDS_P2;PMS_P1;PMS_P2;Temp;Humidity;BMP_temperature;BMP_pressure;BME280_temperature;BME280_humidity;BME280_pressure;Samples;Min_cycle;Max_cycle;Signal;HPM_P1;HPM_P2
2021/11/24 00:02:08;;;;;;;21.10;12.00;;;;;;;5.88;100.00;101484.08;5070260;58;1143128;-75
2021/11/24 00:07:14;;;;;;;16.17;11.80;;;;;;;5.89;100.00;101478.80;5070011;58;1143104;-78
2021/11/24 00:12:20;;;;;;;19.20;11.88;;;;;;;5.91;100.00;101483.98;5069971;58;1143255;-86
2021/11/24 00:17:25;;;;;;;23.23;12.20;;;;;;;5.91;100.00;101474.80;5069743;58;1143230;-76
2021/11/24 00:22:32;;;;;;;17.90;11.13;;;;;;;5.90;100.00;101480.96;5093443;57;1143155;-76
2021/11/24 00:27:37;;;;;;;17.13;11.10;;;;;;;5.90;100.00;101471.31;5223845;56;1143152;-80
2021/11/24 00:32:43;;;;;;;21.30;13.30;;;;;;;5.91;100.00;101471.70;5137884;57;1143189;-84
2021/11/24 00:37:49;;;;;;;27.50;12.97;;;;;;;5.93;100.00;101465.94;5222848;56;1143153;-79
2021/11/24 00:42:55;;;;;;;18.60;12.00;;;;;;;5.93;100.00;101469.88;5081692;57;1143195;-75
2021/11/24 00:48:01;;;;;;;30.10;15.67;;;;;;;5.94;100.00;101458.91;5081371;57;1143210;-82
2021/11/24 00:53:06;;;;;;;21.17;11.97;;;;;;;5.93;100.00;101454.13;5081762;57;1143421;-78
2021/11/24 00:58:13;;;;;;;22.07;12.57;;;;;;;5.94;100.00;101451.04;5081470;57;1143294;-87
2021/11/24 01:03:19;;;;;;;25.27;13.20;;;;;;;5.91;100.00;101452.02;5081460;57;1143311;-77
2021/11/24 01:08:24;;;;;;;18.17;12.43;;;;;;;5.93;100.00;101451.95;5081529;57;1143198;-83
2021/11/24 01:13:31;;;;;;;21.67;13.23;;;;;;;5.92;100.00;101447.16;5081705;57;1143362;-79
2021/11/24 01:18:38;;;;;;;18.27;11.30;;;;;;;5.94;100.00;101444.47;5081594;57;1143278;-82
2021/11/24 01:23:46;;;;;;;23.33;12.73;;;;;;;5.94;100.00;101450.58;5054130;58;1143218;-83
2021/11/24 01:28:51;;;;;;;15.47;10.60;;;;;;;5.94;100.00;101443.16;5139438;57;1143156;-73
2021/11/24 01:33:58;;;;;;;21.87;12.17;;;;;;;5.92;100.00;101440.59;5045879;58;1143352;-78
2021/11/24 01:39:04;;;;;;;19.13;12.73;;;;;;;5.91;100.00;101434.95;5056849;58;1143791;-81
2021/11/24 01:44:22;;;;;;;19.50;14.03;;;;;;;5.88;100.00;101430.25;5069590;58;1143120;-80
2021/11/24 01:49:29;;;;;;;22.17;13.27;;;;;;;5.85;100.00;101428.61;5069721;58;1141164;-87
2021/11/24 01:54:34;;;;;;;22.53;12.43;;;;;;;5.83;100.00;101426.97;5115809;57;1141371;-86
2021/11/24 01:59:40;;;;;;;22.53;13.83;;;;;;;5.80;100.00;101416.17;5132758;57;1141118;-86
2021/11/24 02:04:46;;;;;;;22.23;13.13;;;;;;;5.78;100.00;101415.84;5147840;57;1141162;-85
2021/11/24 02:09:52;;;;;;;23.97;12.63;;;;;;;5.78;100.00;101412.75;5084621;57;1141262;-84
2021/11/24 02:14:58;;;;;;;18.60;13.30;;;;;;;5.81;100.00;101407.34;5064604;58;1141393;-83
2021/11/24 02:20:06;;;;;;;17.80;10.93;;;;;;;5.79;100.00;101403.96;5064724;58;1141242;-75
2021/11/24 02:25:12;;;;;;;20.23;13.03;;;;;;;5.81;100.00;101401.23;5072838;58;1141138;-77
2021/11/24 02:30:18;;;;;;;23.00;13.37;;;;;;;5.80;100.00;101397.80;5127692;57;1141180;-77
2021/11/24 02:35:25;;;;;;;19.33;13.13;;;;;;;5.79;100.00;101391.30;5222971;56;1141291;-74
2021/11/24 02:40:32;;;;;;;20.10;12.07;;;;;;;5.78;100.00;101387.81;5223066;56;1141152;-80
2021/11/24 02:45:39;;;;;;;20.70;13.40;;;;;;;5.77;100.00;101386.56;5137064;57;1141367;-78
2021/11/24 02:50:45;;;;;;;20.20;11.20;;;;;;;5.72;100.00;101387.22;5137190;57;1141380;-80
2021/11/24 02:55:51;;;;;;;23.63;14.70;;;;;;;5.69;100.00;101380.78;5136971;57;1141151;-84
2021/11/24 03:01:00;;;;;;;21.53;12.60;;;;;;;5.67;100.00;101376.91;5137254;57;1141108;-86
2021/11/24 03:06:06;;;;;;;15.80;9.70;;;;;;;5.66;100.00;101376.52;5137339;57;1139020;-83
2021/11/24 03:11:12;;;;;;;18.10;11.03;;;;;;;5.66;100.00;101380.45;5137256;57;1136998;-86
2021/11/24 03:16:18;;;;;;;20.27;11.27;;;;;;;5.66;100.00;101373.89;5137427;57;1143403;-86
2021/11/24 03:21:23;;;;;;;20.77;11.57;;;;;;;5.63;100.00;101377.53;5112486;57;1143259;-80
2021/11/24 03:26:29;;;;;;;16.37;10.18;;;;;;;5.62;100.00;101376.28;5137283;57;1143287;-81
2021/11/24 03:31:35;;;;;;;17.75;10.48;;;;;;;5.62;100.00;101375.82;5054263;58;1143064;-85
2021/11/24 03:36:41;;;;;;;15.30;10.40;;;;;;;5.62;100.00;101368.41;5054025;58;1143233;-76
2021/11/24 03:41:47;;;;;;;19.60;9.20;;;;;;;5.59;100.00;101366.77;5053955;58;1143174;-81
2021/11/24 03:46:53;;;;;;;24.90;14.13;;;;;;;5.58;100.00;101369.45;5054000;58;1141122;-75
2021/11/24 03:51:59;;;;;;;46.67;36.20;;;;;;;5.59;100.00;101355.41;5054006;58;1143226;-81
2021/11/24 03:57:05;;;;;;;18.20;11.30;;;;;;;5.62;100.00;101353.97;5053758;58;1143338;-81
2021/11/24 04:02:10;;;;;;;20.67;11.90;;;;;;;5.65;100.00;101352.05;5136726;57;1143459;-91
2021/11/24 04:07:16;;;;;;;14.93;9.93;;;;;;;5.67;100.00;101344.11;5054191;58;1143143;-82
2021/11/24 04:12:22;;;;;;;12.10;8.57;;;;;;;5.69;100.00;101347.52;5054342;58;1141118;-88
2021/11/24 04:17:28;;;;;;;18.53;11.83;;;;;;;5.68;100.00;101330.53;5054272;58;1141142;-85
2021/11/24 04:22:33;;;;;;;19.77;10.80;;;;;;;5.67;100.00;101324.42;5098672;57;1143258;-76
2021/11/24 04:27:39;;;;;;;10.03;6.50;;;;;;;5.65;100.00;101324.48;5137348;57;1143051;-81
2021/11/24 04:32:45;;;;;;;14.60;8.63;;;;;;;5.70;100.00;101320.81;5137286;57;1141159;-78
2021/11/24 04:37:52;;;;;;;9.37;6.57;;;;;;;5.69;100.00;101329.61;5122210;57;1141339;-76
2021/11/24 04:43:00;;;;;;;12.87;8.43;;;;;;;5.69;100.00;101330.46;5173023;56;1139122;-90
2021/11/24 04:48:05;;;;;;;17.10;11.33;;;;;;;5.69;100.00;101319.11;5195521;56;1141378;-79
2021/11/24 04:53:11;;;;;;;21.30;12.23;;;;;;;5.68;100.00;101321.34;5218841;56;1143480;-78
2021/11/24 04:58:17;;;;;;;19.63;10.13;;;;;;;5.68;100.00;101322.66;5212171;56;1143175;-84
2021/11/24 05:03:23;;;;;;;25.50;10.17;;;;;;;5.66;100.00;101322.26;5212452;56;1143182;-81
2021/11/24 05:08:29;;;;;;;18.17;10.10;;;;;;;5.67;100.00;101319.17;5211461;56;1143401;-82
2021/11/24 05:13:39;;;;;;;11.23;8.70;;;;;;;5.69;100.00;101312.55;5142924;56;1143296;-75
2021/11/24 05:18:48;;;;;;;11.80;8.43;;;;;;;5.68;100.00;101310.84;5210412;56;1141245;-82
2021/11/24 05:23:52;;;;;;;59.15;19.82;;;;;;;5.70;100.00;101309.00;5145105;56;1141191;-85
2021/11/24 05:28:59;;;;;;;35.97;14.53;;;;;;;5.71;100.00;101308.94;5128064;57;1143187;-82
2021/11/24 05:34:04;;;;;;;20.52;10.82;;;;;;;5.72;100.00;101308.02;5127931;57;1143451;-82
2021/11/24 05:39:11;;;;;;;13.93;8.80;;;;;;;5.73;100.00;101303.16;5101651;57;1143296;-80
2021/11/24 05:44:22;;;;;;;11.53;8.00;;;;;;;5.73;100.00;101309.73;5126257;57;1141181;-79
2021/11/24 05:49:28;;;;;;;144.20;36.17;;;;;;;5.73;100.00;101316.75;5125670;57;1141261;-83
2021/11/24 05:54:35;;;;;;;17.12;10.55;;;;;;;5.73;100.00;101310.19;5125498;57;1145331;-85
2021/11/24 05:59:41;;;;;;;43.57;14.20;;;;;;;5.73;100.00;101309.73;5125619;57;1143300;-81
2021/11/24 06:04:47;;;;;;;20.30;9.37;;;;;;;5.74;100.00;101321.08;5125757;57;1143313;-83
2021/11/24 06:09:52;;;;;;;62.83;17.93;;;;;;;5.75;100.00;101323.64;5125773;57;1141028;-78
2021/11/24 06:14:58;;;;;;;38.70;12.80;;;;;;;5.77;100.00;101327.05;5126555;57;1143224;-77
2021/11/24 06:20:05;;;;;;;19.17;9.63;;;;;;;5.78;100.00;101321.34;5129838;56;1143242;-81
2021/11/24 06:25:13;;;;;;;37.13;13.47;;;;;;;5.80;100.00;101317.73;5126990;57;1139513;-81
2021/11/24 06:30:21;;;;;;;37.93;13.67;;;;;;;5.80;100.00;101320.36;5126488;57;1141329;-84
2021/11/24 06:35:28;;;;;;;44.07;14.77;;;;;;;5.80;100.00;101322.13;5098459;57;1141141;-83
2021/11/24 06:40:34;;;;;;;16.43;8.80;;;;;;;5.80;100.00;101323.44;5126898;57;1141135;-83
2021/11/24 06:45:41;;;;;;;24.13;10.73;;;;;;;5.81;100.00;101331.68;5079286;57;1139108;-84
2021/11/24 06:50:47;;;;;;;25.97;16.00;;;;;;;5.80;100.00;101332.63;5070614;57;1141144;-84
2021/11/24 06:55:53;;;;;;;46.77;17.13;;;;;;;5.81;100.00;101337.78;5070920;57;1141094;-86
2021/11/24 07:01:00;;;;;;;43.93;13.07;;;;;;;5.82;100.00;101332.07;5070994;57;1141390;-84
2021/11/24 07:06:06;;;;;;;35.30;12.77;;;;;;;5.82;100.00;101337.33;5071254;57;1141478;-89
2021/11/24 07:11:12;;;;;;;24.90;11.80;;;;;;;5.82;100.00;101344.73;5071101;57;1141143;-86
2021/11/24 07:16:17;;;;;;;15.17;10.07;;;;;;;5.81;100.00;101346.97;5071209;57;1141092;-84
2021/11/24 07:21:23;;;;;;;14.13;7.73;;;;;;;5.82;100.00;101355.70;5046656;57;1141457;-83
2021/11/24 07:26:29;;;;;;;11.10;7.63;;;;;;;5.84;100.00;101350.78;4989986;58;1138956;-84
2021/11/24 07:31:35;;;;;;;10.57;6.47;;;;;;;5.86;100.00;101350.71;4989925;58;1139072;-86
2021/11/24 07:36:41;;;;;;;11.00;8.47;;;;;;;5.85;100.00;101343.30;4989584;58;1138960;-86
2021/11/24 07:41:47;;;;;;;14.47;6.53;;;;;;;5.85;100.00;101343.75;4989793;58;1139150;-84
2021/11/24 07:46:53;;;;;;;8.37;6.87;;;;;;;5.86;100.00;101349.40;5048919;57;1138968;-83
2021/11/24 07:51:58;;;;;;;13.53;8.70;;;;;;;5.85;100.00;101350.31;5053476;57;1134961;-84
2021/11/24 07:57:05;;;;;;;10.00;7.23;;;;;;;5.88;100.00;101344.94;5043635;57;1136977;-86
2021/11/24 08:02:10;;;;;;;9.97;7.30;;;;;;;5.91;100.00;101347.46;5041842;58;1255143;-83
2021/11/24 08:07:16;;;;;;;15.87;7.80;;;;;;;5.92;100.00;101343.92;5043821;58;1139011;-82
2021/11/24 08:12:21;;;;;;;9.40;6.37;;;;;;;5.95;100.00;101350.34;5044192;58;1141079;-86
2021/11/24 08:17:27;;;;;;;9.83;6.93;;;;;;;5.96;100.00;101361.22;5044570;58;1139033;-82
2021/11/24 08:22:33;;;;;;;15.73;6.87;;;;;;;6.00;100.00;101355.77;5088547;57;1139234;-83
2021/11/24 08:27:39;;;;;;;8.23;5.72;;;;;;;6.00;100.00;101345.27;5126867;57;1141100;-84
2021/11/24 08:32:44;;;;;;;10.43;7.33;;;;;;;6.03;100.00;101349.53;5127289;57;1139212;-84
2021/11/24 08:37:50;;;;;;;8.10;6.53;;;;;;;6.07;100.00;101355.04;5126898;57;1141134;-84
2021/11/24 08:42:56;;;;;;;9.87;6.70;;;;;;;6.10;100.00;101353.59;5127030;57;1139060;-85
2021/11/24 08:48:04;;;;;;;11.53;7.13;;;;;;;6.09;100.00;101357.14;5127045;57;1139076;-82
2021/11/24 08:53:10;;;;;;;48.17;26.40;;;;;;;6.12;100.00;101358.28;5127052;57;1141163;-87
2021/11/24 08:58:16;;;;;;;467.87;222.13;;;;;;;6.12;100.00;101345.16;5126980;57;1143276;-84
2021/11/24 09:03:22;;;;;;;389.33;179.53;;;;;;;6.15;100.00;101348.95;5126245;57;1147528;-85
2021/11/24 09:08:28;;;;;;;147.90;71.23;;;;;;;6.16;100.00;101351.13;5126658;57;1147337;-82
2021/11/24 09:13:34;;;;;;;357.87;149.77;;;;;;;6.15;100.00;101345.02;5126948;57;1145306;-84
2021/11/24 09:18:40;;;;;;;285.87;127.90;;;;;;;6.19;100.00;101347.05;5126493;57;1147442;-83
2021/11/24 09:23:46;;;;;;;133.53;68.10;;;;;;;6.25;100.00;101354.66;5063944;57;1147451;-87
2021/11/24 09:28:52;;;;;;;16.40;11.87;;;;;;;6.33;100.00;101354.68;5128171;57;1145373;-88
2021/11/24 09:33:59;;;;;;;9.50;6.33;;;;;;;6.38;100.00;101358.41;5128363;57;1143244;-87
2021/11/24 09:39:05;;;;;;;13.77;6.07;;;;;;;6.35;100.00;101341.48;5128939;57;1139333;-87
2021/11/24 09:44:11;;;;;;;6.83;5.73;;;;;;;6.34;100.00;101343.25;5129466;57;1141178;-85
2021/11/24 09:49:18;;;;;;;10.43;6.07;;;;;;;6.32;100.00;101342.47;5127300;57;1139076;-90
2021/11/24 09:54:25;;;;;;;11.43;5.70;;;;;;;6.32;100.00;101338.98;5127020;57;1141316;-89
2021/11/24 09:59:31;;;;;;;7.40;4.90;;;;;;;6.32;100.00;101336.36;5125470;57;1141186;-86
2021/11/24 10:04:37;;;;;;;6.40;5.78;;;;;;;6.35;100.00;101340.16;5125127;57;1139282;-86
2021/11/24 10:09:44;;;;;;;7.23;5.10;;;;;;;6.39;100.00;101337.79;5125861;57;1139098;-87
2021/11/24 10:14:49;;;;;;;5.70;4.57;;;;;;;6.42;100.00;101335.45;5125320;57;1139087;-88
2021/11/24 10:20:11;;;;;;;8.23;4.90;;;;;;;6.42;100.00;101324.48;5193888;56;1139047;-86
2021/11/24 10:25:18;;;;;;;6.97;4.93;;;;;;;6.43;100.00;101328.81;5189559;56;1139089;-86
2021/11/24 10:30:30;;;;;;;5.87;4.60;;;;;;;6.48;100.00;101323.34;5033221;57;1139078;-86
2021/11/24 10:35:36;;;;;;;5.77;4.40;;;;;;;6.48;100.00;101317.63;5033270;57;1139092;-87
2021/11/24 10:40:45;;;;;;;4.70;4.03;;;;;;;6.58;100.00;101314.09;5032787;58;1139149;-84
2021/11/24 10:45:58;;;;;;;7.70;5.10;;;;;;;6.62;100.00;101314.34;5038919;57;1139113;-86
2021/11/24 10:51:08;;;;;;;8.57;5.40;;;;;;;6.63;100.00;101315.58;5227335;56;1139268;-84
2021/11/24 10:56:14;;;;;;;6.93;3.93;;;;;;;6.67;100.00;101311.88;5253482;55;1136962;-84
2021/11/24 11:01:25;;;;;;;5.67;5.03;;;;;;;6.69;100.00;101314.44;5270867;56;1136961;-84
2021/11/24 11:06:31;;;;;;;6.23;4.30;;;;;;;6.69;100.00;101307.87;5270720;55;1136977;-86
2021/11/24 11:11:39;;;;;;;4.77;4.20;;;;;;;6.68;100.00;101293.02;5227516;56;1136997;-86
2021/11/24 11:16:53;;;;;;;9.97;3.70;;;;;;;6.76;100.00;101288.69;5213722;56;1136957;-86
2021/11/24 11:22:00;;;;;;;6.57;4.20;;;;;;;6.92;100.00;101290.94;5209253;56;1137030;-85
2021/11/24 11:27:07;;;;;;;6.13;3.97;;;;;;;7.02;100.00;101289.11;5209362;56;1136966;-84
2021/11/24 11:32:13;;;;;;;6.43;3.77;;;;;;;7.01;100.00;101289.19;5212731;56;1137044;-87
2021/11/24 11:37:20;;;;;;;5.53;3.70;;;;;;;6.98;100.00;101278.81;5188041;56;1137187;-85
2021/11/24 11:42:26;;;;;;;4.93;3.90;;;;;;;6.95;100.00;101273.70;5181828;57;1136899;-85
2021/11/24 11:47:51;;;;;;;6.20;4.10;;;;;;;6.89;100.00;101259.07;5160550;57;1137154;-86
2021/11/24 11:53:22;;;;;;;7.67;5.43;;;;;;;7.00;100.00;101262.03;5178850;56;1134872;-86
2021/11/24 11:58:31;;;;;;;5.67;3.93;;;;;;;7.03;100.00;101260.53;5114199;57;1139031;-86
2021/11/24 12:04:10;;;;;;;16.50;10.50;;;;;;;7.01;100.00;101254.99;5128752;56;1138963;-84
2021/11/24 12:09:26;;;;;;;3.83;3.53;;;;;;;6.95;100.00;101253.98;5126134;56;1143261;-85
2021/11/24 12:15:20;;;;;;;3.27;2.90;;;;;;;6.92;100.00;101251.50;5128005;57;1139100;-84
2021/11/24 12:20:33;;;;;;;4.57;3.90;;;;;;;6.90;100.00;101248.94;5136649;56;1139062;-86
2021/11/24 12:25:40;;;;;;;2.70;2.50;;;;;;;6.93;100.00;101247.48;5213113;56;1139059;-84
2021/11/24 12:30:58;;;;;;;7.53;3.43;;;;;;;6.93;100.00;101249.25;5213629;56;1139319;-84
2021/11/24 12:36:17;;;;;;;4.27;2.60;;;;;;;6.92;100.00;101244.46;5213205;56;1139186;-86
2021/11/24 12:41:39;;;;;;;4.37;3.17;;;;;;;6.90;100.00;101242.83;5144795;57;1138957;-87
2021/11/24 12:46:47;;;;;;;11.90;5.83;;;;;;;6.87;100.00;101240.39;5145223;56;1137125;-84
2021/11/24 12:51:56;;;;;;;2.83;2.63;;;;;;;6.88;100.00;101235.02;5066170;57;1139238;-85
2021/11/24 12:57:05;;;;;;;3.90;3.57;;;;;;;6.85;100.00;101229.94;5061629;58;1137243;-84
2021/11/24 13:02:14;;;;;;;8.37;3.50;;;;;;;6.86;100.00;101229.48;4997042;58;1137116;-84
2021/11/24 13:07:25;;;;;;;7.50;5.40;;;;;;;6.88;100.00;101228.45;4966425;59;1137022;-85
2021/11/24 13:12:34;;;;;;;7.03;3.83;;;;;;;6.94;100.00;101207.57;4965462;58;1136911;-84
2021/11/24 13:17:43;;;;;;;5.00;3.70;;;;;;;6.96;100.00;101207.88;4999813;58;1137051;-85
2021/11/24 13:28:13;;;;;;;6.47;3.37;;;;;;;6.97;100.00;101195.58;5211467;55;46225;-84
2021/11/24 13:33:33;;;;;;;3.58;3.27;;;;;;;6.94;100.00;101191.33;5142515;57;1134864;-84
2021/11/24 13:38:45;;;;;;;4.13;3.53;;;;;;;6.92;100.00;101194.50;5044557;58;1139045;-85
2021/11/24 13:44:04;;;;;;;4.70;3.30;;;;;;;6.90;100.00;101184.98;5096006;58;1139091;-84
2021/11/24 13:49:30;;;;;;;4.13;3.50;;;;;;;6.90;100.00;101178.41;5034661;57;1139065;-85
2021/11/24 13:54:45;;;;;;;5.33;3.33;;;;;;;6.91;100.00;101184.05;5132843;56;1139019;-85
2021/11/24 14:00:01;;;;;;;6.63;2.67;;;;;;;6.86;100.00;101183.47;5206462;56;1139262;-83
2021/11/24 14:05:12;;;;;;;5.60;2.57;;;;;;;6.81;100.00;101173.64;5130533;57;1139078;-85
2021/11/24 14:10:23;;;;;;;3.47;2.90;;;;;;;6.76;100.00;101184.84;5132397;57;1139081;-85
2021/11/24 14:15:30;;;;;;;4.13;3.00;;;;;;;6.72;100.00;101178.92;5132623;57;1139052;-84
2021/11/24 14:20:44;;;;;;;2.63;2.00;;;;;;;6.74;100.00;101182.75;5144707;56;1139042;-86
2021/11/24 14:25:55;;;;;;;2.20;1.90;;;;;;;6.75;100.00;101181.83;5220806;56;1139033;-85
2021/11/24 14:31:01;;;;;;;10.27;4.50;;;;;;;6.76;100.00;101179.13;5220623;56;1139033;-84
2021/11/24 14:36:06;;;;;;;7.63;3.23;;;;;;;6.78;100.00;101173.79;5134132;57;1141135;-85
2021/11/24 14:41:12;;;;;;;5.23;4.30;;;;;;;6.75;100.00;101188.40;5132282;57;1139042;-85
2021/11/24 14:46:19;;;;;;;5.07;3.83;;;;;;;6.69;100.00;101190.44;5172455;56;1138463;-86
2021/11/24 14:51:24;;;;;;;20.10;12.90;;;;;;;6.65;100.00;101174.89;5219797;56;1139123;-86
2021/11/24 14:56:32;;;;;;;8.43;3.90;;;;;;;6.63;100.00;101175.42;5219719;56;1143137;-85
2021/11/24 15:01:39;;;;;;;13.10;6.90;;;;;;;6.60;100.00;101169.86;5219535;56;1139077;-84
2021/11/24 15:06:44;;;;;;;12.47;7.37;;;;;;;6.60;100.00;101171.17;5220091;56;1141133;-87
2021/11/24 15:11:51;;;;;;;20.67;11.13;;;;;;;6.60;100.00;101169.00;5220720;56;1141104;-87
2021/11/24 15:16:57;;;;;;;9.75;6.37;;;;;;;6.59;100.00;101164.21;5220361;56;1143351;-86
2021/11/24 15:22:03;;;;;;;53.90;28.33;;;;;;;6.62;100.00;101160.58;5221334;56;1136942;-84
2021/11/24 15:27:10;;;;;;;22.13;11.17;;;;;;;6.62;100.00;101160.58;5193617;56;1141258;-86
2021/11/24 15:32:15;;;;;;;14.43;7.17;;;;;;;6.62;100.00;101152.70;5157160;56;1141105;-88
2021/11/24 15:37:21;;;;;;;16.63;8.70;;;;;;;6.59;100.00;101154.16;5157417;56;1139223;-86
2021/11/24 15:42:27;;;;;;;16.20;7.50;;;;;;;6.52;100.00;101152.79;5157195;56;1139068;-85
2021/11/24 15:47:34;;;;;;;10.33;5.27;;;;;;;6.53;100.00;101146.61;5169007;56;1139196;-84
2021/11/24 15:52:39;;;;;;;56.70;27.10;;;;;;;6.51;100.00;101150.62;5210420;56;1138995;-85
2021/11/24 15:57:45;;;;;;;383.93;208.73;;;;;;;6.50;100.00;101150.70;5210263;56;1141221;-85
2021/11/24 16:02:51;;;;;;;566.33;282.77;;;;;;;6.49;100.00;101149.84;5209779;56;1145212;-83
2021/11/24 16:07:57;;;;;;;137.13;67.80;;;;;;;6.47;100.00;101159.58;5210176;56;1145299;-87
2021/11/24 16:13:04;;;;;;;39.73;19.53;;;;;;;6.47;100.00;101153.47;5209911;56;1143570;-85
2021/11/24 16:18:10;;;;;;;58.27;24.43;;;;;;;6.50;100.00;101142.35;5209932;56;1141071;-85
2021/11/24 16:23:16;;;;;;;12.60;6.27;;;;;;;6.49;100.00;101144.59;5151820;56;1141114;-88
2021/11/24 16:28:21;;;;;;;32.60;18.67;;;;;;;6.48;100.00;101139.41;5122630;57;1139376;-84
2021/11/24 16:33:27;;;;;;;18.43;9.43;;;;;;;6.47;100.00;101137.70;5120978;57;1141080;-85
2021/11/24 16:38:33;;;;;;;9.05;6.17;;;;;;;6.47;100.00;101132.45;5125608;56;1139051;-84
2021/11/24 16:43:39;;;;;;;9.47;6.90;;;;;;;6.46;100.00;101133.38;5138896;56;1137366;-85
2021/11/24 16:48:45;;;;;;;14.70;9.03;;;;;;;6.43;100.00;101122.55;5200427;56;1136870;-81
2021/11/24 16:53:51;;;;;;;12.63;7.57;;;;;;;6.41;100.00;101122.27;5206383;56;1137196;-81
2021/11/24 16:58:57;;;;;;;11.67;6.77;;;;;;;6.39;100.00;101117.56;5206516;56;1137126;-81
2021/11/24 17:04:03;;;;;;;71.80;30.87;;;;;;;6.38;100.00;101109.28;5194981;56;1141363;-82
2021/11/24 17:09:09;;;;;;;50.48;20.90;;;;;;;6.36;100.00;101108.05;5100437;57;1143155;-80
2021/11/24 17:14:15;;;;;;;24.10;10.00;;;;;;;6.36;100.00;101108.05;5072676;57;1143418;-81
2021/11/24 17:19:21;;;;;;;30.83;12.80;;;;;;;6.37;100.00;101101.87;5142007;56;1143168;-80
2021/11/24 17:24:29;;;;;;;16.87;9.30;;;;;;;6.37;100.00;101101.02;5131585;56;1143358;-80
2021/11/24 17:29:34;;;;;;;24.50;11.97;;;;;;;6.33;100.00;101106.42;5178572;56;1141222;-80
2021/11/24 17:34:40;;;;;;;24.47;11.43;;;;;;;6.28;100.00;101107.10;5206493;56;1143103;-80
2021/11/24 17:39:45;;;;;;;21.20;12.63;;;;;;;6.25;100.00;101103.81;5168235;56;1143156;-80
2021/11/24 17:44:51;;;;;;;29.37;14.53;;;;;;;6.24;100.00;101099.02;5166525;56;1143375;-83
2021/11/24 17:49:56;;;;;;;19.07;10.83;;;;;;;6.23;100.00;101098.63;5173878;56;1143207;-81
2021/11/24 17:55:03;;;;;;;23.07;12.50;;;;;;;6.21;100.00;101097.00;5149255;56;1143348;-82
2021/11/24 18:00:12;;;;;;;28.43;15.53;;;;;;;6.21;100.00;101100.48;5175874;56;1143324;-83
2021/11/24 18:05:18;;;;;;;20.50;12.80;;;;;;;6.23;100.00;101093.84;5157416;56;1143243;-82
2021/11/24 18:10:25;;;;;;;20.87;11.57;;;;;;;6.25;100.00;101090.21;5193554;56;1143169;-83
2021/11/24 18:15:31;;;;;;;40.43;24.70;;;;;;;6.26;100.00;101089.25;5177167;56;1143192;-82
2021/11/24 18:20:37;;;;;;;22.93;11.53;;;;;;;6.23;100.00;101085.50;5189551;56;1143219;-82
2021/11/24 18:25:44;;;;;;;48.50;28.47;;;;;;;6.21;100.00;101086.03;5193904;56;1143197;-81
2021/11/24 18:30:49;;;;;;;22.32;12.43;;;;;;;6.22;100.00;101077.69;5174190;56;1143172;-83
2021/11/24 18:35:55;;;;;;;23.07;13.77;;;;;;;6.22;100.00;101073.28;5190187;56;1143205;-82
2021/11/24 18:41:01;;;;;;;32.33;14.57;;;;;;;6.23;100.00;101078.08;5179894;56;1143350;-82
2021/11/24 18:46:07;;;;;;;20.43;12.07;;;;;;;6.23;100.00;101075.45;5185472;56;1143212;-82
2021/11/24 18:51:15;;;;;;;37.10;18.03;;;;;;;6.22;100.00;101063.25;5176564;56;1143069;-83
2021/11/24 18:56:21;;;;;;;26.40;14.73;;;;;;;6.24;100.00;101067.96;5189303;56;1143664;-82
2021/11/24 19:01:28;;;;;;;23.77;14.47;;;;;;;6.26;100.00;101064.30;5178164;56;1143079;-81
2021/11/24 19:06:34;;;;;;;25.77;15.23;;;;;;;6.24;100.00;101055.67;5187643;56;1143132;-83
2021/11/24 19:11:40;;;;;;;44.63;19.87;;;;;;;6.24;100.00;101055.67;5195644;56;1143130;-81
2021/11/24 19:16:46;;;;;;;90.17;34.17;;;;;;;6.23;100.00;101049.19;5218762;56;1143183;-82
2021/11/24 19:21:51;;;;;;;38.40;20.87;;;;;;;6.24;100.00;101041.70;5181479;56;1143274;-82
2021/11/24 19:26:57;;;;;;;91.17;36.77;;;;;;;6.25;100.00;101030.27;5171771;56;1143226;-83
2021/11/24 19:32:03;;;;;;;63.53;27.50;;;;;;;6.22;100.00;101030.41;5125494;56;1143161;-81
2021/11/24 19:37:09;;;;;;;45.43;23.37;;;;;;;6.22;100.00;101033.89;5121808;56;1143181;-81
2021/11/24 19:42:15;;;;;;;30.13;16.80;;;;;;;6.21;100.00;101023.00;5121266;56;1143234;-83
2021/11/24 19:47:24;;;;;;;36.37;17.90;;;;;;;6.19;100.00;101026.63;5121657;56;1143208;-83
2021/11/24 19:52:28;;;;;;;44.20;22.83;;;;;;;6.17;100.00;101020.59;5121653;56;1143233;-76
2021/11/24 19:57:34;;;;;;;38.23;20.13;;;;;;;6.17;100.00;101025.39;5120132;56;1143235;-77
2021/11/24 20:02:40;;;;;;;37.50;20.30;;;;;;;6.16;100.00;101025.00;5128106;56;1143078;-78
2021/11/24 20:07:48;;;;;;;39.67;20.73;;;;;;;6.17;100.00;101025.84;5137960;56;1143170;-76
2021/11/24 20:12:58;;;;;;;38.30;23.55;;;;;;;6.15;100.00;101018.05;5151350;56;1143173;-82
2021/11/24 20:18:02;;;;;;;32.60;19.50;;;;;;;6.15;100.00;101013.26;5144468;56;1141593;-80
2021/11/24 20:23:07;;;;;;;72.73;38.97;;;;;;;6.14;100.00;101015.03;5169352;56;1141285;-79
2021/11/24 20:28:19;;;;;;;31.57;16.07;;;;;;;6.16;100.00;101007.92;5146794;56;1141198;-73
2021/11/24 20:33:24;;;;;;;28.83;17.40;;;;;;;6.23;100.00;101012.41;5166279;56;1141215;-81
2021/11/24 20:38:29;;;;;;;31.17;16.97;;;;;;;6.22;100.00;101006.31;5210756;56;1141456;-80
2021/11/24 20:43:36;;;;;;;32.40;20.30;;;;;;;6.23;100.00;100996.19;5143541;57;1141081;-77
2021/11/24 20:48:41;;;;;;;44.00;21.47;;;;;;;6.20;100.00;100991.09;5143162;57;1139028;-79
2021/11/24 20:53:47;;;;;;;31.83;17.00;;;;;;;6.21;100.00;100990.16;5143244;57;1141618;-82
2021/11/24 20:58:55;;;;;;;34.70;18.63;;;;;;;6.22;100.00;100993.64;5142027;57;1141127;-80
2021/11/24 21:04:00;;;;;;;36.17;19.73;;;;;;;6.21;100.00;100988.00;5180918;56;1141122;-82
2021/11/24 21:09:06;;;;;;;42.47;18.53;;;;;;;6.18;100.00;100985.53;5191939;56;1140749;-80
2021/11/24 21:14:12;;;;;;;35.27;17.30;;;;;;;6.22;100.00;100979.20;5187775;56;1141160;-82
2021/11/24 21:19:18;;;;;;;36.00;16.37;;;;;;;6.22;100.00;100979.20;5188448;56;1141169;-82
2021/11/24 21:24:27;;;;;;;38.83;18.87;;;;;;;6.22;100.00;100980.51;5149275;56;1141084;-80
2021/11/24 21:29:34;;;;;;;34.80;16.67;;;;;;;6.19;100.00;100971.01;5140706;57;1141250;-78
2021/11/24 21:34:40;;;;;;;33.03;15.60;;;;;;;6.14;100.00;100965.14;5140434;57;1141075;-77
2021/11/24 21:39:46;;;;;;;31.27;15.57;;;;;;;6.11;100.00;100961.84;5141121;57;1141081;-83
2021/11/24 21:44:52;;;;;;;29.77;15.17;;;;;;;6.11;100.00;100952.66;5141298;57;1139083;-78
2021/11/24 21:49:59;;;;;;;30.23;16.17;;;;;;;6.13;100.00;100959.50;5142255;57;1139539;-76
2021/11/24 21:55:06;;;;;;;31.57;18.07;;;;;;;6.04;100.00;100949.48;5142240;57;1143083;-82
2021/11/24 22:00:14;;;;;;;30.03;16.13;;;;;;;6.04;100.00;100949.48;5142128;57;1143401;-81
2021/11/24 22:05:21;;;;;;;29.90;16.43;;;;;;;6.04;100.00;100944.23;5142234;57;1143545;-76
2021/11/24 22:15:55;;;;;;;31.70;14.50;;;;;;;6.04;100.00;100940.30;5142008;57;1143360;-83
2021/11/24 22:20:58;;;;;;;32.23;15.63;;;;;;;6.06;100.00;100931.03;5159951;56;1143163;-81
2021/11/24 22:26:06;;;;;;;31.00;15.67;;;;;;;6.03;100.00;100921.99;5229049;56;1143705;-78
2021/11/24 22:31:12;;;;;;;28.17;14.33;;;;;;;6.00;100.00;100919.91;5229005;56;1143342;-82
2021/11/24 22:36:18;;;;;;;32.83;15.77;;;;;;;6.00;100.00;100904.63;5169178;56;1143257;-76
2021/11/24 22:41:23;;;;;;;31.93;16.70;;;;;;;6.04;100.00;100903.53;5153134;56;1143322;-84
2021/11/24 22:46:29;;;;;;;22.13;12.40;;;;;;;6.05;100.00;100896.05;5153351;56;1143350;-73
2021/11/24 22:51:35;;;;;;;34.33;17.73;;;;;;;6.04;100.00;100896.12;5153229;56;1143282;-79
2021/11/24 22:56:42;;;;;;;26.47;14.43;;;;;;;5.99;100.00;100896.36;5153326;56;1143273;-73
2021/11/24 23:01:50;;;;;;;33.97;15.37;;;;;;;6.00;100.00;100891.48;5154314;56;1143175;-80
2021/11/24 23:06:56;;;;;;;23.60;13.70;;;;;;;6.00;100.00;100892.80;5154553;56;1143210;-73